Warning: Javascript must be enabled to use all the features on this page!


Page Loading - Please Wait...

Click to hideNews Bulletins

Peak Streamflow for New Jersey

Click to hide state-specific text

ALL DATA ARE AT LOCAL TIME


USGS 01403600 Green Brook at Rock Avenue at Plainfield NJ

Somerset County, New Jersey
Hydrologic Unit Code 02030105
Latitude  40°36'07", Longitude  74°27'27" NAD83
Drainage area 18.2  square miles
Gage datum 43.85 feet above NGVD29
Output formats
Table
Graph
Tab-separated file
peakfq (watstore) format
Reselect output format
Water
Year
Date Gage
Height
(feet)
Stream-
flow
(cfs)
1972 1972-06-21 8.78 1,900
1973 1973-08-02 13.60 10,400
1974 1973-12-21 8.71 1,400
1975 1975-07-15 9.58 3,800
1976 1975-10-19 9.66 1,900
1977 1977-03-22   1,500
1978 1978-03-27 8.80 1,250
1979 1979-09-06   2,150
1991 1990-10-13 7.77 2,010
1992 1992-07-09 7.90 2,110
1993 1992-12-11 7.27 1,680
1994 1994-01-28 8.30 2,420
1995 1995-06-22 7.28 1,690
1996 1996-01-19 8.93 2,990
1997 1996-10-19 11.40 6,140
1998 1998-04-02 6.25 1,120
1999 1999-09-16 12.17 7,460
2000 2000-05-18 8.97 3,030
2001 2001-03-30 7.37 1,750
2002 2002-05-18 6.55 1,270
2003 2003-08-05 7.92 2,120
2004 2004-07-27 8.45 2,550
2005 2005-03-28 8.07 2,240
2006 2005-10-09 9.17 3,230
2007 2007-04-15 10.18 4,380
2008 2008-09-06 9.26 3,320
2009 2008-12-12 7.82 2,050
2010 2010-03-14 10.92 5,400
2011 2011-08-28 10.76 5,170
2012 2011-12-08 8.63 2,710
2013 2013-06-08 8.50 2,600
2014 2014-04-30 9.92 3,970
2015 2015-08-19 8.14 2,170
2016 2016-02-25 9.39 3,360